TimeMST,TemperatureF,Dew PointF,Humidity,Sea Level PressureIn,VisibilityMPH,Wind Direction,Wind SpeedMPH,Gust SpeedMPH,PrecipitationIn,Events,Conditions,WindDirDegrees,DateUTC
12:53 AM,28.0,15.1,58,30.29,10.0,ESE,3.5,-,N/A,,Mostly Cloudy,120,2012-02-05 07:53:00
1:53 AM,24.1,14.0,65,30.31,10.0,ESE,6.9,-,N/A,,Clear,110,2012-02-05 08:53:00
2:53 AM,28.0,15.1,58,30.28,10.0,East,3.5,-,N/A,,Overcast,100,2012-02-05 09:53:00
3:53 AM,26.1,15.1,63,30.28,10.0,Calm,Calm,-,N/A,,Scattered Clouds,0,2012-02-05 10:53:00
4:53 AM,23.0,14.0,68,30.30,10.0,Calm,Calm,-,N/A,,Scattered Clouds,0,2012-02-05 11:53:00
5:53 AM,21.9,14.0,72,30.33,10.0,Calm,Calm,-,N/A,,Overcast,0,2012-02-05 12:53:00
6:53 AM,24.1,16.0,71,30.36,10.0,East,4.6,-,N/A,,Overcast,80,2012-02-05 13:53:00
7:53 AM,24.1,12.9,62,30.37,10.0,ENE,5.8,-,N/A,,Partly Cloudy,70,2012-02-05 14:53:00
8:53 AM,34.0,12.9,42,30.34,10.0,East,9.2,-,N/A,,Clear,90,2012-02-05 15:53:00
9:53 AM,36.0,14.0,41,30.34,10.0,SE,8.1,-,N/A,,Clear,130,2012-02-05 16:53:00
10:53 AM,39.0,12.9,34,30.30,10.0,SE,10.4,-,N/A,,Clear,130,2012-02-05 17:53:00
11:53 AM,41.0,12.0,31,30.28,10.0,ESE,6.9,-,N/A,,Clear,110,2012-02-05 18:53:00
12:53 PM,43.0,10.9,27,30.22,10.0,ESE,6.9,-,N/A,,Scattered Clouds,120,2012-02-05 19:53:00
1:53 PM,44.1,10.9,26,30.20,10.0,South,4.6,-,N/A,,Mostly Cloudy,180,2012-02-05 20:53:00
2:53 PM,45.0,10.9,25,30.16,10.0,SW,4.6,-,N/A,,Clear,220,2012-02-05 21:53:00
3:53 PM,46.0,10.9,24,30.15,10.0,Calm,Calm,-,N/A,,Clear,0,2012-02-05 22:53:00
4:53 PM,44.1,12.9,28,30.16,10.0,WNW,11.5,-,N/A,,Clear,300,2012-02-05 23:53:00
5:53 PM,36.0,16.0,44,30.20,10.0,NW,5.8,-,N/A,,Partly Cloudy,310,2012-02-06 00:53:00
6:53 PM,37.9,17.1,43,30.19,10.0,North,4.6,-,N/A,,Overcast,350,2012-02-06 01:53:00
7:53 PM,36.0,18.0,48,30.19,10.0,North,5.8,-,N/A,,Overcast,10,2012-02-06 02:53:00
8:53 PM,37.0,18.0,46,30.16,10.0,NNW,9.2,-,N/A,,Overcast,340,2012-02-06 03:53:00
9:53 PM,37.0,19.9,50,30.15,10.0,North,10.4,-,N/A,,Overcast,350,2012-02-06 04:53:00
10:53 PM,34.0,19.9,56,30.14,10.0,NW,4.6,-,N/A,,Partly Cloudy,320,2012-02-06 05:53:00
11:53 PM,30.9,19.0,61,30.13,10.0,Calm,Calm,-,N/A,,Overcast,0,2012-02-06 06:53:00